Time;durP1;ratioP1;P1;durP2;ratioP2;P2;SDS_P1;SDS_P2;PMS_P1;PMS_P2;Temp;Humidity;BMP_temperature;BMP_pressure;BME280_temperature;BME280_humidity;BME280_pressure;Samples;Min_cycle;Max_cycle;Signal;HPM_P1;HPM_P2
2023/01/10 00:01:42;;;;;;;1.00;0.30;;;9.70;69.30;;;;;;2319174;55;20930;-83
2023/01/10 00:04:09;;;;;;;1.15;0.50;;;9.70;69.30;;;;;;2558051;54;21002;-84
2023/01/10 00:06:35;;;;;;;1.25;0.40;;;9.70;69.40;;;;;;2557176;54;21021;-84
2023/01/10 00:09:02;;;;;;;1.95;0.50;;;9.70;69.40;;;;;;2317477;55;20930;-83
2023/01/10 00:14:13;;;;;;;1.45;0.57;;;9.70;69.40;;;;;;2317850;55;20997;-83
2023/01/10 00:16:41;;;;;;;1.65;0.50;;;9.70;69.30;;;;;;2557144;54;21006;-84
2023/01/10 00:19:09;;;;;;;1.12;0.47;;;9.70;69.30;;;;;;2318354;55;20941;-84
2023/01/10 00:21:36;;;;;;;1.83;0.47;;;9.70;69.30;;;;;;2317351;55;21001;-84
2023/01/10 00:24:18;;;;;;;2.03;0.60;;;9.70;69.30;;;;;;2318076;55;20926;-84
2023/01/10 00:26:49;;;;;;;1.17;0.45;;;9.70;69.30;;;;;;2318111;55;21035;-84
2023/01/10 00:29:19;;;;;;;1.40;0.50;;;9.70;69.30;;;;;;2556750;54;20929;-84
2023/01/10 00:31:47;;;;;;;1.12;0.47;;;9.70;69.30;;;;;;2559015;54;20997;-83
2023/01/10 00:34:15;;;;;;;1.25;0.43;;;9.70;69.30;;;;;;2558589;54;20954;-85
2023/01/10 00:36:41;;;;;;;2.28;0.62;;;9.70;69.40;;;;;;2559958;54;20993;-84
2023/01/10 00:39:10;;;;;;;1.60;0.50;;;9.70;69.40;;;;;;2560220;54;21375;-84
2023/01/10 00:44:21;;;;;;;2.05;0.60;;;9.70;69.50;;;;;;2560594;54;21006;-84
2023/01/10 00:46:47;;;;;;;1.62;0.45;;;9.70;69.50;;;;;;2321000;55;21037;-85
2023/01/10 00:49:15;;;;;;;1.00;0.43;;;9.70;69.50;;;;;;2559534;54;21438;-84
2023/01/10 00:51:42;;;;;;;3.20;0.52;;;9.70;69.50;;;;;;2560614;54;20998;-84
2023/01/10 00:54:08;;;;;;;2.05;0.55;;;9.70;69.40;;;;;;2320279;55;21754;-84
2023/01/10 00:56:35;;;;;;;1.00;0.40;;;9.70;69.40;;;;;;2560070;54;21105;-83
2023/01/10 00:59:01;;;;;;;1.27;0.50;;;9.70;69.40;;;;;;2320151;55;20917;-84
2023/01/10 01:01:27;;;;;;;1.20;0.45;;;9.70;69.40;;;;;;2559028;54;21422;-84
2023/01/10 01:03:54;;;;;;;1.85;0.43;;;9.70;69.40;;;;;;2559866;54;20973;-83
2023/01/10 01:06:20;;;;;;;1.48;0.50;;;9.60;69.30;;;;;;2319995;55;20925;-84
2023/01/10 01:08:47;;;;;;;1.27;0.50;;;9.70;69.40;;;;;;2320874;55;21841;-84
2023/01/10 01:11:13;;;;;;;0.98;0.40;;;9.70;69.30;;;;;;2559601;54;21288;-84
2023/01/10 01:13:39;;;;;;;1.42;0.40;;;9.70;69.30;;;;;;2559629;54;20965;-84
2023/01/10 01:16:06;;;;;;;1.12;0.40;;;9.70;69.30;;;;;;2319986;55;20937;-83
2023/01/10 01:18:33;;;;;;;3.20;0.68;;;9.70;69.40;;;;;;2559252;54;20937;-84
2023/01/10 01:21:02;;;;;;;1.83;0.60;;;9.70;69.40;;;;;;2319881;55;20934;-83
2023/01/10 01:23:29;;;;;;;1.65;0.52;;;9.70;69.30;;;;;;2559452;54;21469;-84
2023/01/10 01:25:55;;;;;;;3.30;0.55;;;9.70;69.30;;;;;;2560053;54;20934;-85
2023/01/10 01:28:22;;;;;;;2.90;0.60;;;9.70;69.20;;;;;;2317751;55;21037;-84
2023/01/10 01:30:48;;;;;;;2.65;0.60;;;9.70;69.20;;;;;;2557941;54;21092;-83
2023/01/10 01:33:15;;;;;;;2.33;0.50;;;9.70;69.20;;;;;;2319084;55;20953;-83
2023/01/10 01:35:45;;;;;;;0.98;0.30;;;9.70;69.20;;;;;;2560685;54;21041;-84
2023/01/10 01:38:13;;;;;;;0.93;0.40;;;9.70;69.20;;;;;;2559859;54;21090;-83
2023/01/10 01:40:40;;;;;;;1.83;0.55;;;9.70;69.20;;;;;;2559946;54;21573;-85
2023/01/10 01:43:22;;;;;;;2.05;0.62;;;9.70;69.20;;;;;;2559731;54;20938;-84
2023/01/10 01:45:48;;;;;;;2.58;0.50;;;9.70;69.10;;;;;;2560618;54;20933;-84
2023/01/10 01:48:48;;;;;;;2.05;0.75;;;9.70;69.20;;;;;;2319903;55;20921;-84
2023/01/10 01:51:24;;;;;;;3.30;0.60;;;9.70;68.90;;;;;;2559917;54;20922;-83
2023/01/10 01:53:52;;;;;;;4.22;0.90;;;9.70;69.20;;;;;;2320577;55;20929;-84
2023/01/10 01:57:44;;;;;;;3.10;0.70;;;9.70;69.30;;;;;;2320760;55;20937;-83
2023/01/10 02:00:12;;;;;;;2.72;0.60;;;9.70;68.80;;;;;;2321803;55;20929;-84
2023/01/10 02:02:45;;;;;;;2.70;0.68;;;9.80;69.50;;;;;;2561829;54;20918;-84
2023/01/10 02:05:23;;;;;;;1.40;0.50;;;9.70;69.40;;;;;;2320121;55;20910;-83
2023/01/10 02:07:51;;;;;;;1.90;0.50;;;9.70;69.40;;;;;;2558857;54;20966;-84
2023/01/10 02:10:59;;;;;;;2.00;0.70;;;9.70;69.40;;;;;;2320373;55;20965;-83
2023/01/10 02:13:27;;;;;;;5.10;0.60;;;9.70;69.20;;;;;;2560153;54;20985;-84
2023/01/10 02:15:53;;;;;;;3.22;0.60;;;9.70;69.50;;;;;;2535363;54;20973;-84
2023/01/10 02:18:20;;;;;;;4.32;1.20;;;9.70;69.50;;;;;;2318486;55;20962;-84
2023/01/10 02:21:00;;;;;;;3.03;0.62;;;9.80;69.50;;;;;;2559513;54;21033;-85
2023/01/10 02:24:10;;;;;;;3.42;0.95;;;9.80;69.50;;;;;;2559461;54;20978;-84
2023/01/10 02:29:03;;;;;;;4.50;0.70;;;9.80;69.10;;;;;;2319604;55;21564;-84
2023/01/10 02:31:45;;;;;;;2.90;0.73;;;9.80;68.80;;;;;;2322993;55;20926;-84
2023/01/10 02:35:12;;;;;;;3.72;0.88;;;9.80;69.20;;;;;;2320645;55;21020;-84
2023/01/10 02:38:13;;;;;;;3.72;0.60;;;9.70;69.10;;;;;;2561776;54;20889;-84
2023/01/10 02:40:51;;;;;;;2.62;0.70;;;9.80;69.10;;;;;;2561762;54;20922;-83
2023/01/10 02:43:21;;;;;;;2.65;0.80;;;9.80;69.20;;;;;;2321157;55;20961;-83
2023/01/10 02:45:53;;;;;;;2.90;0.60;;;9.80;69.40;;;;;;2561767;54;21501;-83
2023/01/10 02:48:20;;;;;;;4.07;0.77;;;9.70;69.30;;;;;;2321698;55;20989;-83
2023/01/10 02:50:51;;;;;;;3.62;0.73;;;9.70;69.30;;;;;;2561573;54;21053;-84
2023/01/10 02:53:37;;;;;;;3.00;0.70;;;9.70;69.20;;;;;;2321152;55;21000;-83
2023/01/10 02:56:30;;;;;;;5.43;1.02;;;9.80;69.10;;;;;;2561783;54;20949;-83
2023/01/10 03:06:03;;;;;;;3.87;0.70;;;9.70;69.00;;;;;;2561843;54;21324;-84
2023/01/10 03:08:38;;;;;;;3.03;0.62;;;9.80;68.60;;;;;;2561150;54;21437;-84
2023/01/10 03:11:08;;;;;;;5.87;0.90;;;9.70;69.00;;;;;;2561389;54;20918;-83
2023/01/10 03:13:57;;;;;;;1.98;0.65;;;9.70;69.10;;;;;;2321204;55;20921;-83
2023/01/10 03:16:25;;;;;;;4.30;0.60;;;9.70;68.90;;;;;;2561118;54;21049;-83
2023/01/10 03:19:03;;;;;;;3.05;0.50;;;9.70;69.40;;;;;;2321617;55;20922;-83
2023/01/10 03:21:30;;;;;;;3.40;0.68;;;9.70;69.30;;;;;;2321183;55;20953;-84
2023/01/10 03:24:03;;;;;;;3.95;0.93;;;9.70;69.50;;;;;;2561165;54;21470;-83
2023/01/10 03:26:46;;;;;;;3.78;0.85;;;9.70;69.50;;;;;;2561157;54;21045;-85
2023/01/10 03:29:12;;;;;;;2.62;0.88;;;9.70;69.50;;;;;;2533915;54;21005;-83
2023/01/10 03:31:41;;;;;;;4.43;0.90;;;9.70;69.50;;;;;;2321091;55;20977;-84
2023/01/10 03:34:07;;;;;;;2.72;0.75;;;9.70;69.50;;;;;;2561392;54;20938;-83
2023/01/10 03:36:45;;;;;;;2.95;0.73;;;9.70;69.60;;;;;;2321146;55;20973;-84
2023/01/10 03:39:22;;;;;;;4.03;0.80;;;9.50;69.30;;;;;;2560789;54;20953;-83
2023/01/10 03:44:57;;;;;;;3.92;0.73;;;9.70;69.40;;;;;;2320956;55;20945;-84
2023/01/10 03:47:39;;;;;;;7.55;1.00;;;9.70;68.80;;;;;;2535727;54;20949;-84
2023/01/10 03:50:19;;;;;;;3.45;0.70;;;9.70;69.20;;;;;;2321067;55;20979;-83
2023/01/10 03:52:46;;;;;;;5.53;0.93;;;9.70;69.40;;;;;;2561242;54;20961;-83
2023/01/10 03:55:16;;;;;;;4.18;0.65;;;9.70;69.40;;;;;;2561238;54;20909;-83
2023/01/10 03:57:44;;;;;;;2.62;0.80;;;9.70;69.40;;;;;;2321401;55;21033;-83
2023/01/10 04:00:11;;;;;;;2.53;0.70;;;9.70;69.50;;;;;;2320672;55;20949;-84
2023/01/10 04:02:38;;;;;;;2.95;0.85;;;9.70;69.50;;;;;;2321339;55;20973;-83
2023/01/10 04:05:05;;;;;;;2.35;0.65;;;9.70;69.50;;;;;;2560634;54;20990;-83
2023/01/10 04:07:32;;;;;;;2.47;0.70;;;9.70;69.50;;;;;;2560333;54;20942;-84
2023/01/10 04:09:58;;;;;;;6.10;1.02;;;9.70;69.40;;;;;;2321314;55;20946;-84
2023/01/10 04:12:25;;;;;;;5.53;1.00;;;9.70;69.30;;;;;;2561074;54;20978;-83
2023/01/10 04:14:51;;;;;;;4.57;1.20;;;9.70;69.20;;;;;;2561264;54;21954;-84
2023/01/10 04:17:18;;;;;;;5.53;1.00;;;9.70;69.20;;;;;;2320482;55;21029;-83
2023/01/10 04:19:45;;;;;;;2.62;1.00;;;9.70;69.20;;;;;;2560921;54;21509;-84
2023/01/10 04:22:11;;;;;;;3.00;0.82;;;9.70;69.20;;;;;;2560749;54;20993;-84
2023/01/10 04:24:39;;;;;;;3.20;0.85;;;9.70;69.20;;;;;;2561283;54;20990;-84
2023/01/10 04:27:05;;;;;;;2.92;0.70;;;9.70;69.20;;;;;;2560672;54;21000;-83
2023/01/10 04:29:32;;;;;;;2.95;0.80;;;9.70;69.20;;;;;;2560797;54;21001;-83
2023/01/10 04:31:59;;;;;;;1.50;0.60;;;9.70;69.30;;;;;;2560780;54;20921;-83
2023/01/10 04:34:26;;;;;;;2.62;0.77;;;9.70;69.20;;;;;;2560648;54;20953;-82
2023/01/10 04:36:52;;;;;;;6.55;1.27;;;9.70;69.30;;;;;;2561190;54;20989;-83
2023/01/10 04:39:19;;;;;;;4.20;0.80;;;9.70;69.20;;;;;;2560596;54;21029;-84
2023/01/10 04:41:46;;;;;;;1.98;0.75;;;9.70;69.20;;;;;;2560745;54;20942;-83
2023/01/10 04:44:12;;;;;;;3.92;0.80;;;9.70;69.20;;;;;;2320604;55;21077;-82
2023/01/10 04:46:39;;;;;;;3.80;0.90;;;9.70;69.90;;;;;;2562280;54;21062;-84
2023/01/10 04:49:06;;;;;;;5.25;0.80;;;9.70;69.20;;;;;;2321111;55;20929;-83
2023/01/10 04:51:32;;;;;;;5.57;0.80;;;9.60;69.20;;;;;;2317892;55;21005;-84
2023/01/10 04:53:58;;;;;;;4.28;0.80;;;9.60;69.20;;;;;;2557026;54;21119;-82
2023/01/10 04:56:25;;;;;;;3.47;0.80;;;9.60;69.20;;;;;;2557565;54;21733;-83
2023/01/10 04:58:51;;;;;;;4.05;0.80;;;9.60;69.20;;;;;;2317835;55;20953;-83
2023/01/10 05:01:21;;;;;;;4.18;0.85;;;9.60;69.20;;;;;;2316728;55;20949;-83
2023/01/10 05:03:52;;;;;;;4.43;1.10;;;9.60;69.20;;;;;;2556085;54;20938;-83
2023/01/10 05:06:19;;;;;;;3.22;0.80;;;9.60;69.20;;;;;;2556361;54;21049;-83
2023/01/10 05:08:45;;;;;;;4.20;0.73;;;9.60;69.20;;;;;;2317903;55;20941;-83
2023/01/10 05:11:12;;;;;;;4.62;1.10;;;9.60;69.20;;;;;;2556888;54;21017;-82
2023/01/10 05:13:39;;;;;;;3.22;1.08;;;9.60;69.20;;;;;;2317931;55;21485;-84
2023/01/10 05:16:06;;;;;;;3.12;1.10;;;9.60;69.20;;;;;;2556408;54;21050;-84
2023/01/10 05:18:32;;;;;;;5.57;1.10;;;9.60;69.20;;;;;;2554218;54;21911;-84
2023/01/10 05:21:05;;;;;;;3.92;1.30;;;9.60;69.20;;;;;;2315634;55;20965;-84
2023/01/10 05:23:32;;;;;;;3.90;0.98;;;9.60;69.20;;;;;;2554987;54;21460;-84
2023/01/10 05:26:07;;;;;;;2.03;0.70;;;9.60;69.10;;;;;;2555360;54;20958;-83
2023/01/10 05:28:34;;;;;;;2.62;0.77;;;9.60;69.00;;;;;;2314739;55;21544;-83
2023/01/10 05:31:00;;;;;;;4.43;1.02;;;9.70;69.20;;;;;;2316106;55;21841;-83
2023/01/10 05:33:27;;;;;;;4.53;1.08;;;9.60;69.10;;;;;;2554631;54;20970;-84
2023/01/10 05:35:53;;;;;;;3.00;1.08;;;9.60;69.10;;;;;;2554709;54;20985;-83
2023/01/10 05:38:19;;;;;;;3.40;1.00;;;9.60;69.00;;;;;;2554481;54;20946;-83
2023/01/10 05:40:46;;;;;;;5.40;1.00;;;9.60;69.00;;;;;;2315192;54;20941;-83
2023/01/10 05:43:12;;;;;;;5.62;1.30;;;9.60;69.00;;;;;;2315708;55;21360;-83
2023/01/10 05:45:39;;;;;;;4.25;1.20;;;9.50;68.80;;;;;;2556520;54;21754;-84
2023/01/10 05:48:05;;;;;;;5.07;1.55;;;9.60;68.90;;;;;;2559018;54;21419;-83
2023/01/10 05:50:32;;;;;;;5.07;1.25;;;9.50;68.70;;;;;;2559435;54;21041;-83
2023/01/10 05:53:02;;;;;;;3.65;1.10;;;9.50;68.70;;;;;;2559503;54;20965;-83
2023/01/10 05:55:28;;;;;;;3.90;1.15;;;9.50;68.70;;;;;;2300150;55;22215;-83
2023/01/10 05:57:55;;;;;;;3.55;1.17;;;9.50;68.70;;;;;;2319037;55;20942;-83
2023/01/10 06:00:22;;;;;;;3.08;1.08;;;9.50;68.70;;;;;;2559396;54;21005;-83
2023/01/10 06:02:52;;;;;;;3.62;0.90;;;9.50;68.70;;;;;;2318721;55;21516;-83
2023/01/10 06:05:19;;;;;;;3.80;1.27;;;9.50;68.70;;;;;;2558149;54;21836;-84
2023/01/10 06:07:45;;;;;;;2.10;0.90;;;9.50;68.80;;;;;;2557980;54;20933;-83
2023/01/10 06:10:12;;;;;;;2.83;0.88;;;9.40;68.70;;;;;;2557843;54;21237;-83
2023/01/10 06:12:39;;;;;;;2.47;1.00;;;9.40;68.70;;;;;;2557842;54;21889;-83
2023/01/10 06:15:06;;;;;;;4.37;0.98;;;9.40;68.80;;;;;;2558261;54;20938;-83
2023/01/10 06:17:32;;;;;;;3.00;1.00;;;9.40;68.80;;;;;;2557766;54;20922;-83
2023/01/10 06:19:59;;;;;;;4.12;1.08;;;9.40;68.70;;;;;;2558318;54;20946;-83
2023/01/10 06:22:26;;;;;;;4.35;1.08;;;9.40;68.70;;;;;;2558268;54;20917;-83
2023/01/10 06:24:54;;;;;;;4.18;1.00;;;9.40;68.70;;;;;;2557440;54;21310;-82
2023/01/10 06:27:20;;;;;;;4.72;0.73;;;9.40;68.70;;;;;;2557813;54;21537;-84
2023/01/10 06:29:47;;;;;;;4.32;0.93;;;9.40;68.70;;;;;;2558011;54;20941;-83
2023/01/10 06:32:13;;;;;;;2.67;0.80;;;9.40;68.70;;;;;;2558428;54;21739;-83
2023/01/10 06:34:39;;;;;;;2.97;0.77;;;9.40;68.80;;;;;;2559666;54;21012;-83
2023/01/10 06:37:07;;;;;;;2.40;0.80;;;9.40;68.80;;;;;;2559491;54;20961;-83
2023/01/10 06:39:34;;;;;;;1.92;0.60;;;9.30;68.90;;;;;;2558914;54;20957;-83
2023/01/10 06:42:00;;;;;;;2.30;0.80;;;9.30;68.90;;;;;;2319702;55;20950;-82
2023/01/10 06:44:26;;;;;;;4.07;0.70;;;9.40;69.10;;;;;;2559898;54;20914;-83
2023/01/10 06:46:53;;;;;;;2.78;0.68;;;9.40;69.10;;;;;;2559264;54;22329;-83
2023/01/10 06:49:20;;;;;;;3.60;0.88;;;9.40;69.10;;;;;;2559332;54;20938;-83
2023/01/10 06:51:47;;;;;;;3.08;1.00;;;9.40;69.10;;;;;;2319402;55;20941;-83
2023/01/10 06:54:13;;;;;;;3.33;0.77;;;9.30;68.90;;;;;;2559104;54;20945;-83
2023/01/10 06:56:40;;;;;;;5.25;0.80;;;9.40;68.90;;;;;;2319583;55;21005;-83
2023/01/10 06:59:07;;;;;;;2.83;0.90;;;9.40;68.90;;;;;;2559351;54;20930;-83
2023/01/10 07:01:34;;;;;;;2.80;0.70;;;9.40;68.90;;;;;;2559303;54;20925;-83
2023/01/10 07:04:00;;;;;;;3.95;0.90;;;9.40;69.50;;;;;;2560911;54;21571;-83
2023/01/10 07:06:27;;;;;;;5.05;1.23;;;9.40;68.80;;;;;;2559843;54;20951;-83
2023/01/10 07:08:56;;;;;;;5.03;2.05;;;9.40;68.70;;;;;;2559664;54;20937;-83
2023/01/10 07:11:22;;;;;;;5.82;2.12;;;9.30;68.50;;;;;;2560483;54;20981;-84
2023/01/10 07:13:50;;;;;;;8.65;2.90;;;9.30;68.50;;;;;;2559714;54;20913;-83
2023/01/10 07:16:19;;;;;;;7.40;2.92;;;9.30;68.50;;;;;;2558652;54;20945;-84
2023/01/10 07:18:45;;;;;;;6.95;3.58;;;9.30;68.50;;;;;;2559475;54;20942;-84
2023/01/10 07:21:12;;;;;;;13.95;7.35;;;9.30;68.50;;;;;;2558901;54;20976;-84
2023/01/10 07:23:38;;;;;;;11.48;5.10;;;9.20;68.40;;;;;;2558829;54;22224;-82
2023/01/10 07:26:09;;;;;;;7.55;3.33;;;9.20;68.50;;;;;;2559056;54;21037;-83
2023/01/10 07:28:36;;;;;;;7.20;2.30;;;9.20;68.50;;;;;;2558802;54;20937;-83
2023/01/10 07:31:03;;;;;;;5.25;1.90;;;9.20;68.50;;;;;;2559829;54;22004;-82
2023/01/10 07:33:30;;;;;;;4.40;1.58;;;9.20;68.50;;;;;;2560298;54;20933;-82
2023/01/10 07:35:59;;;;;;;5.25;1.73;;;9.20;68.50;;;;;;2558668;54;21587;-83
2023/01/10 07:38:26;;;;;;;4.93;1.40;;;9.10;68.30;;;;;;2558570;54;21438;-83
2023/01/10 07:40:52;;;;;;;3.53;1.23;;;9.10;68.40;;;;;;2558742;54;20969;-83
2023/01/10 07:43:18;;;;;;;6.35;1.52;;;9.10;68.30;;;;;;2558536;54;21556;-83
2023/01/10 07:45:45;;;;;;;5.47;1.10;;;9.10;68.40;;;;;;2559190;54;21475;-83
2023/01/10 07:48:11;;;;;;;4.10;1.00;;;9.00;68.30;;;;;;2560222;54;21478;-84
2023/01/10 07:50:37;;;;;;;2.47;0.73;;;9.10;68.40;;;;;;2560103;54;21014;-83
2023/01/10 07:53:05;;;;;;;5.10;1.37;;;9.00;68.40;;;;;;2560210;54;21878;-83
2023/01/10 07:55:33;;;;;;;2.85;0.90;;;9.00;68.40;;;;;;2320279;55;20925;-83
2023/01/10 07:57:59;;;;;;;5.20;1.12;;;9.00;68.50;;;;;;2560846;54;21028;-82
2023/01/10 08:00:26;;;;;;;3.75;1.00;;;9.00;68.40;;;;;;2559783;54;21819;-83
2023/01/10 08:02:53;;;;;;;3.90;1.05;;;9.00;68.50;;;;;;2560629;54;20954;-83
2023/01/10 08:05:20;;;;;;;3.65;1.02;;;9.00;68.40;;;;;;2559476;54;20914;-84
2023/01/10 08:07:46;;;;;;;3.12;1.00;;;9.00;68.50;;;;;;2322200;55;20914;-83
2023/01/10 08:10:12;;;;;;;4.03;0.80;;;9.00;68.50;;;;;;2559086;54;20981;-83
2023/01/10 08:12:39;;;;;;;6.97;1.35;;;9.00;68.50;;;;;;2559612;54;21909;-83
2023/01/10 08:15:06;;;;;;;3.17;1.00;;;9.00;68.50;;;;;;2558788;54;22388;-84
2023/01/10 08:17:33;;;;;;;3.10;1.02;;;9.00;68.60;;;;;;2559625;54;22015;-83
2023/01/10 08:19:59;;;;;;;2.55;1.00;;;9.00;68.60;;;;;;2559262;54;21049;-84
2023/01/10 08:22:25;;;;;;;4.68;1.25;;;9.00;68.70;;;;;;2560234;54;20966;-84
2023/01/10 08:24:52;;;;;;;2.08;0.82;;;9.00;68.70;;;;;;2561680;54;20957;-83
2023/01/10 08:27:19;;;;;;;6.90;0.90;;;9.00;68.70;;;;;;2533695;54;21328;-83
2023/01/10 08:29:45;;;;;;;5.40;1.35;;;9.00;68.70;;;;;;2560535;54;20927;-83
2023/01/10 08:32:14;;;;;;;3.45;0.88;;;9.00;68.70;;;;;;2320873;55;20949;-83
2023/01/10 08:34:41;;;;;;;3.45;0.95;;;9.00;68.60;;;;;;2562267;54;21886;-84
2023/01/10 08:37:11;;;;;;;3.25;0.90;;;9.00;68.70;;;;;;2562043;54;21434;-83
2023/01/10 08:39:38;;;;;;;2.47;0.90;;;9.10;68.80;;;;;;2562410;54;22090;-84
2023/01/10 08:42:04;;;;;;;6.60;0.90;;;9.10;68.80;;;;;;2560145;54;21025;-83
2023/01/10 08:44:31;;;;;;;2.90;1.20;;;9.10;68.80;;;;;;2560363;54;21961;-83
2023/01/10 08:46:57;;;;;;;5.03;1.23;;;9.10;68.80;;;;;;2320240;55;21025;-83
2023/01/10 08:49:24;;;;;;;5.37;1.00;;;9.10;68.90;;;;;;2320807;55;20930;-84
2023/01/10 08:51:51;;;;;;;2.80;1.05;;;9.10;68.90;;;;;;2561064;54;21770;-83
2023/01/10 08:54:17;;;;;;;4.97;1.33;;;9.10;68.90;;;;;;2320235;55;20973;-84
2023/01/10 08:56:44;;;;;;;2.92;1.10;;;9.10;68.80;;;;;;2559324;54;20970;-82
2023/01/10 08:59:10;;;;;;;3.25;1.10;;;9.10;68.80;;;;;;2559063;54;21072;-83
2023/01/10 09:01:37;;;;;;;2.65;1.00;;;9.20;69.60;;;;;;2558203;54;20945;-83
2023/01/10 09:04:04;;;;;;;3.17;1.20;;;9.20;68.90;;;;;;2315853;55;21009;-83
2023/01/10 09:06:30;;;;;;;3.62;1.17;;;9.20;68.90;;;;;;2316453;55;20949;-83
2023/01/10 09:08:56;;;;;;;5.18;1.15;;;9.20;68.90;;;;;;2555594;54;21024;-83
2023/01/10 09:11:23;;;;;;;3.80;0.95;;;9.20;68.90;;;;;;2316076;55;20993;-83
2023/01/10 09:13:50;;;;;;;4.80;0.85;;;9.20;68.80;;;;;;2556138;54;20953;-84
2023/01/10 09:16:16;;;;;;;3.25;1.10;;;9.30;68.90;;;;;;2316032;55;20984;-83
2023/01/10 09:18:43;;;;;;;4.60;1.12;;;9.30;68.90;;;;;;2317325;55;20997;-82
2023/01/10 09:21:09;;;;;;;4.03;1.23;;;9.30;68.90;;;;;;2317321;55;20914;-82
2023/01/10 09:23:37;;;;;;;3.67;1.20;;;9.30;68.90;;;;;;2317613;55;20938;-84
2023/01/10 09:26:03;;;;;;;4.97;1.23;;;9.30;69.00;;;;;;2557540;54;21778;-83
2023/01/10 09:28:29;;;;;;;3.95;0.82;;;9.40;69.10;;;;;;2318966;55;20954;-83
2023/01/10 09:30:56;;;;;;;3.83;0.82;;;9.40;69.10;;;;;;2558068;54;21461;-83
2023/01/10 09:33:22;;;;;;;5.37;1.40;;;9.40;69.10;;;;;;2558540;54;20918;-83
2023/01/10 09:35:48;;;;;;;4.12;1.12;;;9.40;69.10;;;;;;2559014;54;22123;-83
2023/01/10 09:38:16;;;;;;;5.30;1.20;;;9.50;69.10;;;;;;2318696;55;20922;-83
2023/01/10 09:42:53;;;;;;;7.28;1.73;;;9.50;69.10;;;;;;2559828;54;22235;-84
2023/01/10 09:45:40;;;;;;;6.35;1.50;;;9.50;68.80;;;;;;2319130;55;20981;-83
2023/01/10 09:51:02;;;;;;;4.53;1.50;;;9.60;68.90;;;;;;2558106;54;20973;-82
2023/01/10 09:53:30;;;;;;;4.97;1.42;;;9.70;68.50;;;;;;2559173;54;20957;-83
2023/01/10 09:55:57;;;;;;;7.05;1.42;;;9.60;69.10;;;;;;2530984;54;21973;-83
2023/01/10 09:58:26;;;;;;;5.12;2.62;;;9.70;69.20;;;;;;2317944;55;20946;-82
2023/01/10 10:01:13;;;;;;;5.37;2.12;;;9.70;69.20;;;;;;2558579;54;21530;-83
2023/01/10 10:04:23;;;;;;;3.50;1.58;;;9.80;69.00;;;;;;2559825;54;21197;-83
2023/01/10 10:06:51;;;;;;;4.75;1.50;;;9.80;69.20;;;;;;2558964;54;21049;-83
2023/01/10 10:09:23;;;;;;;3.65;1.10;;;9.90;69.40;;;;;;2559551;54;21100;-83
2023/01/10 10:12:29;;;;;;;5.47;1.73;;;9.90;69.30;;;;;;2559204;54;21771;-84
2023/01/10 10:16:43;;;;;;;5.80;1.35;;;9.90;68.80;;;;;;2319036;55;21096;-83
2023/01/10 10:24:54;;;;;;;5.72;1.50;;;10.00;67.60;;;;;;2318965;55;21117;-82
2023/01/10 10:27:22;;;;;;;3.25;0.90;;;10.10;67.60;;;;;;2558092;54;20993;-83
2023/01/10 10:34:03;;;;;;;6.72;1.25;;;10.20;68.30;;;;;;2558561;54;20930;-83
2023/01/10 10:36:55;;;;;;;4.90;1.23;;;10.20;67.50;;;;;;2558449;54;20990;-84
2023/01/10 10:39:24;;;;;;;4.93;1.20;;;10.30;68.00;;;;;;2558584;54;21013;-82
2023/01/10 10:41:51;;;;;;;6.65;1.10;;;10.30;68.10;;;;;;2558339;54;21045;-83
2023/01/10 10:45:57;;;;;;;3.40;1.35;;;10.30;68.20;;;;;;2556927;54;21013;-83
2023/01/10 10:48:31;;;;;;;5.93;1.30;;;10.40;68.30;;;;;;2316240;55;21005;-83
2023/01/10 10:53:56;;;;;;;3.28;1.05;;;10.40;68.20;;;;;;2316220;55;20973;-83
2023/01/10 10:56:23;;;;;;;7.97;1.27;;;10.50;67.80;;;;;;2554515;54;20987;-84
2023/01/10 10:58:50;;;;;;;4.50;1.20;;;10.60;68.50;;;;;;2555978;54;20986;-83
2023/01/10 11:01:17;;;;;;;6.57;1.40;;;10.60;68.40;;;;;;2555131;54;20970;-83
2023/01/10 11:04:08;;;;;;;6.90;1.60;;;10.60;68.60;;;;;;2555574;54;20922;-83
2023/01/10 11:06:34;;;;;;;5.82;1.40;;;10.70;68.40;;;;;;2556525;54;21000;-83
2023/01/10 11:09:02;;;;;;;4.80;1.27;;;10.70;68.80;;;;;;2556842;54;21926;-82
2023/01/10 11:11:42;;;;;;;5.47;1.17;;;10.80;68.70;;;;;;2556837;54;21049;-84
2023/01/10 11:14:08;;;;;;;5.32;1.10;;;10.80;68.30;;;;;;2553799;54;20955;-82
2023/01/10 11:16:39;;;;;;;5.25;0.98;;;10.90;68.60;;;;;;2316702;55;21619;-83
2023/01/10 11:19:25;;;;;;;7.22;1.30;;;10.90;68.40;;;;;;2558915;54;20941;-86
2023/01/10 11:21:59;;;;;;;6.05;1.15;;;11.00;67.90;;;;;;2559441;54;20977;-85
2023/01/10 11:24:37;;;;;;;4.00;1.05;;;11.10;68.00;;;;;;2560253;54;20941;-85
2023/01/10 11:27:16;;;;;;;4.70;1.05;;;11.10;68.00;;;;;;2321358;55;21652;-85
2023/01/10 11:29:44;;;;;;;3.92;0.98;;;11.10;67.80;;;;;;2561264;54;20961;-85
2023/01/10 11:32:14;;;;;;;5.22;0.93;;;11.20;68.30;;;;;;2560732;54;20930;-86
2023/01/10 11:34:43;;;;;;;6.70;1.20;;;11.10;68.00;;;;;;2560988;54;22151;-85
2023/01/10 11:37:21;;;;;;;5.03;1.10;;;11.20;68.00;;;;;;2559782;54;20958;-85
2023/01/10 11:39:47;;;;;;;3.95;1.00;;;11.30;67.80;;;;;;2561064;54;20978;-86
2023/01/10 11:42:29;;;;;;;4.85;1.12;;;11.30;68.10;;;;;;2319882;55;20997;-85
2023/01/10 11:45:20;;;;;;;4.00;1.35;;;11.30;67.20;;;;;;2560624;54;21045;-84
2023/01/10 11:48:07;;;;;;;7.07;1.30;;;11.40;67.10;;;;;;2494181;54;1724355;-86
2023/01/10 11:50:41;;;;;;;5.68;1.48;;;11.40;67.40;;;;;;2321741;55;20948;-85
2023/01/10 11:53:21;;;;;;;6.97;1.70;;;11.40;67.20;;;;;;2561368;54;20957;-86
2023/01/10 11:55:47;;;;;;;6.15;1.20;;;11.40;67.30;;;;;;2322715;55;21526;-85
2023/01/10 11:58:14;;;;;;;5.32;1.45;;;11.40;67.30;;;;;;2321491;55;21268;-85
2023/01/10 12:00:45;;;;;;;7.03;1.52;;;11.50;67.30;;;;;;2559398;54;21517;-86
2023/01/10 12:04:15;;;;;;;4.93;1.08;;;11.50;67.20;;;;;;2558322;54;21893;-85
2023/01/10 12:06:45;;;;;;;4.30;0.80;;;11.50;65.90;;;;;;2300386;55;20930;-85
2023/01/10 12:09:33;;;;;;;4.87;0.90;;;11.50;66.70;;;;;;2558161;54;20921;-85
2023/01/10 12:12:04;;;;;;;4.85;0.93;;;11.60;65.90;;;;;;2317939;55;20886;-85
2023/01/10 12:14:30;;;;;;;4.18;0.90;;;11.50;66.00;;;;;;2318062;55;21041;-86
2023/01/10 12:17:00;;;;;;;5.00;0.95;;;11.50;66.00;;;;;;2555879;54;20998;-84
2023/01/10 12:19:27;;;;;;;2.58;0.90;;;11.50;65.80;;;;;;2315313;55;20969;-86
2023/01/10 12:21:53;;;;;;;5.25;1.23;;;11.50;65.90;;;;;;2556148;54;20970;-85
2023/01/10 12:24:34;;;;;;;5.22;0.90;;;11.50;65.70;;;;;;2556523;54;20921;-86
2023/01/10 12:27:02;;;;;;;2.97;1.02;;;11.50;65.20;;;;;;2555235;54;21545;-83
2023/01/10 12:29:38;;;;;;;5.32;1.05;;;11.50;65.40;;;;;;2317818;55;20934;-85
2023/01/10 12:32:04;;;;;;;4.90;1.08;;;11.50;65.40;;;;;;2556511;54;20933;-83
2023/01/10 12:34:46;;;;;;;5.03;1.30;;;11.40;65.20;;;;;;2555399;54;21897;-83
2023/01/10 12:37:20;;;;;;;4.80;1.10;;;11.40;64.80;;;;;;2315994;55;20969;-83
2023/01/10 12:39:50;;;;;;;4.82;1.40;;;11.40;65.20;;;;;;2297658;55;20957;-82
2023/01/10 12:45:25;;;;;;;7.20;1.45;;;11.40;65.20;;;;;;2558127;54;21954;-83
2023/01/10 12:48:03;;;;;;;5.03;1.23;;;11.40;65.30;;;;;;2558792;54;20933;-83
2023/01/10 12:50:52;;;;;;;9.98;1.62;;;11.40;65.40;;;;;;2316800;55;21057;-83
2023/01/10 12:53:37;;;;;;;5.50;1.30;;;11.40;64.70;;;;;;2555712;54;21908;-83
2023/01/10 12:56:06;;;;;;;5.37;1.30;;;11.40;64.90;;;;;;2315077;55;21818;-82
2023/01/10 12:58:43;;;;;;;4.80;1.45;;;11.40;65.50;;;;;;2556168;54;21027;-83
2023/01/10 13:01:12;;;;;;;3.28;1.20;;;11.50;65.20;;;;;;2556279;54;20965;-84
2023/01/10 13:03:38;;;;;;;4.07;0.90;;;11.50;65.60;;;;;;2317029;55;21069;-84
2023/01/10 13:06:05;;;;;;;3.95;1.12;;;11.50;65.60;;;;;;2555279;54;20930;-84
2023/01/10 13:08:32;;;;;;;4.60;0.90;;;11.50;66.30;;;;;;2554155;54;20925;-83
2023/01/10 13:10:59;;;;;;;5.00;1.10;;;11.50;65.60;;;;;;2553009;54;20990;-83
2023/01/10 13:13:42;;;;;;;3.45;1.00;;;11.60;65.70;;;;;;2314542;55;20945;-84
2023/01/10 13:19:40;;;;;;;4.12;0.90;;;11.60;64.90;;;;;;2553922;54;21010;-83
2023/01/10 13:22:18;;;;;;;2.87;0.80;;;11.70;64.50;;;;;;2316750;55;20993;-84
2023/01/10 13:24:55;;;;;;;3.00;0.90;;;11.70;65.20;;;;;;2557146;54;20980;-83
2023/01/10 13:27:21;;;;;;;4.12;0.98;;;11.70;65.00;;;;;;2556084;54;20917;-83
2023/01/10 13:29:48;;;;;;;7.65;1.52;;;11.70;65.20;;;;;;2315832;55;20999;-83
2023/01/10 13:32:31;;;;;;;6.05;1.73;;;11.70;65.10;;;;;;2534124;54;20958;-83
2023/01/10 13:35:17;;;;;;;4.10;1.40;;;11.70;64.60;;;;;;2558384;54;20941;-83
2023/01/10 13:37:44;;;;;;;4.93;1.08;;;11.70;64.00;;;;;;2559264;54;20922;-82
2023/01/10 13:40:20;;;;;;;5.90;1.15;;;11.70;64.50;;;;;;2547590;54;20997;-82
2023/01/10 13:45:30;;;;;;;7.10;1.23;;;11.70;64.00;;;;;;2541855;54;21548;-82
2023/01/10 13:48:00;;;;;;;5.40;1.20;;;11.70;63.80;;;;;;2307344;55;21819;-82
2023/01/10 13:50:49;;;;;;;3.75;0.90;;;11.70;63.50;;;;;;2557058;54;20930;-82
2023/01/10 13:55:02;;;;;;;7.72;1.10;;;11.70;63.10;;;;;;2317049;55;20964;-83
2023/01/10 13:57:51;;;;;;;3.08;0.82;;;11.70;62.50;;;;;;2557413;54;21013;-82
2023/01/10 14:03:05;;;;;;;6.37;1.10;;;11.60;63.50;;;;;;2557251;54;20921;-84
2023/01/10 14:05:31;;;;;;;6.10;1.05;;;11.60;63.60;;;;;;2317746;55;20953;-83
2023/01/10 14:07:58;;;;;;;4.75;1.45;;;11.60;63.40;;;;;;2556836;54;20970;-83